createdAt,value
2022-09-03T00:09:06.871Z,8
2022-09-03T00:38:11.569Z,7
2022-09-03T01:07:10.776Z,8
2022-09-03T01:36:08.977Z,7
2022-09-03T02:04:23.718Z,10
2022-09-03T02:32:43.446Z,8
2022-09-03T03:01:04.742Z,11
2022-09-03T03:29:18.822Z,10
2022-09-03T03:57:48.624Z,10
2022-09-03T04:26:12.730Z,10
2022-09-03T04:54:31.332Z,11
2022-09-03T05:23:39.396Z,8
2022-09-03T05:52:53.185Z,8
2022-09-03T06:21:42.649Z,8
2022-09-03T06:50:47.138Z,8
2022-09-03T07:20:02.172Z,10
2022-09-03T07:48:23.881Z,8
2022-09-03T08:16:27.932Z,11
2022-09-03T08:45:23.889Z,10
2022-09-03T09:14:19.260Z,11
2022-09-03T09:43:38.124Z,8
2022-09-03T10:11:37.249Z,11
2022-09-03T10:40:39.861Z,13
2022-09-03T11:09:35.287Z,11
2022-09-03T11:37:52.015Z,5
2022-09-03T12:06:52.366Z,4
2022-09-03T12:36:00.310Z,4
2022-09-03T13:04:49.964Z,2
2022-09-03T13:33:48.899Z,2
2022-09-03T14:02:41.824Z,2
2022-09-03T14:31:43.471Z,3
2022-09-03T14:59:58.121Z,2
2022-09-03T15:28:54.753Z,2
2022-09-03T15:57:46.033Z,3
2022-09-03T16:26:51.263Z,2
2022-09-03T16:55:55.199Z,4
2022-09-03T17:24:55.244Z,14
2022-09-03T17:53:47.759Z,13
2022-09-03T18:22:22.042Z,9
2022-09-03T18:51:02.287Z,6
2022-09-03T19:19:51.934Z,5
2022-09-03T19:48:38.254Z,6
2022-09-03T20:17:28.154Z,5
2022-09-03T20:46:18.954Z,5
2022-09-03T21:14:55.214Z,6
2022-09-03T21:43:45.684Z,7
2022-09-03T22:12:26.557Z,7
2022-09-03T22:41:15.600Z,7
2022-09-03T23:09:47.133Z,7
2022-09-03T23:38:33.269Z,7
